Detall de PIREP

Printer-friendly versionPDF version

[2012/10/05 17:32:00]
Flight IATA:CT1005
Pilot Number:042
Company ICAO:CAT
Aircraft Type:MD11/E
PAX:300
Aircraft Registration:PAX
Departing Airport: LPAZ
Destination Airport: EDDF
Alternate Airport:EDDL
Online: VATSIM
Route:BEKUN DCT 4220N RETEN UM430 STG UN741 MOKOR UN873 OBATO UL976 VADOM UN858 UTELA UN858 VALEK UM163 DIK UT856 ADUSU T856 UNEPI T180 UNOKO
Flight Level:F370
No Slew and time accel
No pause
Crash detect
Detect pilot in Cockpit between each 30 and 45 minutes
17:32 Zero fuel Weight: 377795 Lbs, Fuel Weight: 89828 Lbs
17:32 VATSIM:LPAZ 051700Z 20025KT 6000 SCT007 BKN012 23/22 Q1001
17:32 VATSIM:EDDF 051650Z 22017KT 9999 FEW033 SCT050 18/12 Q1013 NOSIG
17:32 VOICE CATALONIAN/EU TOUR
18:02 Parking Brakes off
18:09 Take-off
18:09 Take off Weight: 466146 Lbs
18:09 Wind: 222º @ 022 Knots Heading: 172º
18:09 POS N36º 58´ 13´´ W025º 10´ 14´´
18:09 Gear Up: 168 Knots
18:09 Flaps:5 at 168 Knots
18:10 Flaps:4 at 179 Knots
18:10 Flaps:3 at 176 Knots
18:10 Flaps:2 at 176 Knots
18:10 Flaps:1 at 175 Knots
18:12 Flaps:0 at 252 Knots
18:24 Wind:225º@077 Knots Heading: 059º Ground Speed: 561 Knots Altitude 30088 ft
18:33 TOC
18:33 Fuel Weight: 76196 Lb
18:35 TOD
18:35 Fuel Weight: 75709 Lb
18:35 TOC
18:35 Fuel Weight: 75700 Lb
18:39 Wind:228º@094 Knots Heading: 027º Ground Speed: 556 Knots Altitude 36607 ft
18:54 Wind:247º@060 Knots Heading: 028º Ground Speed: 515 Knots Altitude 36758 ft
19:09 Wind:247º@058 Knots Heading: 079º Ground Speed: 522 Knots Altitude 36912 ft
19:24 Wind:285º@059 Knots Heading: 077º Ground Speed: 519 Knots Altitude 37050 ft
19:39 Wind:304º@066 Knots Heading: 086º Ground Speed: 507 Knots Altitude 37073 ft
19:54 Wind:301º@064 Knots Heading: 088º Ground Speed: 501 Knots Altitude 37073 ft
20:09 Wind:296º@032 Knots Heading: 043º Ground Speed: 468 Knots Altitude 37076 ft
20:24 Wind:296º@033 Knots Heading: 043º Ground Speed: 466 Knots Altitude 38054 ft
20:39 Wind:241º@032 Knots Heading: 048º Ground Speed: 485 Knots Altitude 38028 ft
20:54 Wind:246º@055 Knots Heading: 067º Ground Speed: 509 Knots Altitude 38028 ft
21:09 Wind:247º@060 Knots Heading: 069º Ground Speed: 512 Knots Altitude 38034 ft
21:24 Wind:259º@063 Knots Heading: 066º Ground Speed: 511 Knots Altitude 38041 ft
21:28 TOD
21:28 Fuel Weight: 34232 Lb
21:39 Wind:267º@061 Knots Heading: 078º Ground Speed: 408 Knots Altitude 28976 ft
21:40 Flaps:1 at 229 Knots
21:44 Flaps:2 at 238 Knots
21:44 Flaps:3 at 238 Knots
21:44 Flaps:4 at 237 Knots
21:49 Flaps:5 at 180 Knots
21:49 Flaps:6 at 180 Knots
21:51 Flaps:7 at 181 Knots
21:53 Flaps:6 at 176 Knots
21:54 Wind:243º@025 Knots Heading: 269º Ground Speed: 165 Knots Altitude 3979 ft
21:58 Flaps:7 at 180 Knots
22:05 Flaps:6 at 187 Knots
22:05 Flaps:7 at 192 Knots
22:05 Gear Down: 193 Knots
22:05 Flaps:6 at 193 Knots
22:05 Flaps:7 at 189 Knots
22:08 Flaps:8 at 173 Knots
22:08 TouchDown:Rate -155 ft/min Speed: 172 Knots
22:08 VATSIM:EDDF 052150Z 20011KT 9999 FEW026 16/12 Q1014 NOSIG
22:08 Land
22:08 Wind:201º@010 Knots
22:08 Heading: 249º
22:08 Flight Duration: 03:59
22:08 Landing Weight: 402899 Lbs
22:08 POS N50º 02´ 03´´ E008º 33´ 45´´
22:16 Parking brakes on
22:16 Block to Block Duration: 04:14
22:16 Final Fuel: 24052 Lbls
22:16 Spent Fuel: 65776 Lbls
22:16 Flight Length: 1856 NM
22:16 TOD Land Length: 198 NM

Exportar CSV

Powered by Drupal - Modified by Danger4k